Time;durP1;ratioP1;P1;durP2;ratioP2;P2;SDS_P1;SDS_P2;PMS_P1;PMS_P2;Temp;Humidity;BMP_temperature;BMP_pressure;BME280_temperature;BME280_humidity;BME280_pressure;Samples;Min_cycle;Max_cycle;Signal;HPM_P1;HPM_P2
2023/05/08 00:01:35;;;;;;;4.97;3.30;;;;;;;;;;5050416;28;20027;-69
2023/05/08 00:04:01;;;;;;;5.90;3.17;;;;;;;;;;5051205;28;20036;-68
2023/05/08 00:06:27;;;;;;;5.93;3.17;;;;;;;;;;5050508;28;20036;-68
2023/05/08 00:08:54;;;;;;;7.10;3.00;;;;;;;;;;5050921;28;20086;-67
2023/05/08 00:11:19;;;;;;;6.65;3.10;;;;;;;;;;5050544;28;20021;-68
2023/05/08 00:13:45;;;;;;;3.65;2.78;;;;;;;;;;5051187;28;20041;-68
2023/05/08 00:16:11;;;;;;;4.82;2.90;;;;;;;;;;5053173;28;20028;-68
2023/05/08 00:18:38;;;;;;;5.82;3.05;;;;;;;;;;5055422;28;20029;-68
2023/05/08 00:21:04;;;;;;;5.35;3.47;;;;;;;;;;5055430;28;20379;-68
2023/05/08 00:23:30;;;;;;;4.60;2.53;;;;;;;;;;5055376;28;20123;-68
2023/05/08 00:25:56;;;;;;;10.68;3.15;;;;;;;;;;5055122;28;20128;-68
2023/05/08 00:28:22;;;;;;;3.70;2.83;;;;;;;;;;5053728;28;20033;-68
2023/05/08 00:30:48;;;;;;;6.47;3.15;;;;;;;;;;5055203;28;20029;-68
2023/05/08 00:33:13;;;;;;;4.38;2.95;;;;;;;;;;5053850;28;20041;-68
2023/05/08 00:35:42;;;;;;;5.28;3.15;;;;;;;;;;5053579;28;20120;-68
2023/05/08 00:38:08;;;;;;;6.35;3.22;;;;;;;;;;5053348;28;20444;-67
2023/05/08 00:40:34;;;;;;;5.10;3.17;;;;;;;;;;5054547;28;20045;-68
2023/05/08 00:43:00;;;;;;;7.30;3.00;;;;;;;;;;5055533;28;20044;-68
2023/05/08 00:45:36;;;;;;;4.55;2.90;;;;;;;;;;5053558;28;20021;-68
2023/05/08 00:48:02;;;;;;;4.53;2.95;;;;;;;;;;5053619;28;20068;-67
2023/05/08 00:50:29;;;;;;;6.10;2.67;;;;;;;;;;5054795;28;20439;-68
2023/05/08 00:52:56;;;;;;;5.13;2.90;;;;;;;;;;5054882;28;20036;-67
2023/05/08 00:55:22;;;;;;;5.85;3.05;;;;;;;;;;5036448;28;20028;-67
2023/05/08 00:57:48;;;;;;;7.82;3.22;;;;;;;;;;5052948;28;20037;-68
2023/05/08 01:00:16;;;;;;;4.85;2.70;;;;;;;;;;5046441;28;20092;-68
2023/05/08 01:02:43;;;;;;;3.83;2.60;;;;;;;;;;5033309;28;20029;-68
2023/05/08 01:05:09;;;;;;;3.63;2.88;;;;;;;;;;5040645;28;20032;-68
2023/05/08 01:07:35;;;;;;;6.40;2.78;;;;;;;;;;5053931;28;20533;-68
2023/05/08 01:10:01;;;;;;;5.68;3.15;;;;;;;;;;5054385;28;20056;-68
2023/05/08 01:12:39;;;;;;;5.93;2.67;;;;;;;;;;5054623;28;20037;-68
2023/05/08 01:15:11;;;;;;;5.00;2.80;;;;;;;;;;5053199;28;20047;-68
2023/05/08 01:17:44;;;;;;;4.35;2.70;;;;;;;;;;5053881;28;20475;-68
2023/05/08 01:20:35;;;;;;;4.22;3.20;;;;;;;;;;5054123;28;20095;-69
2023/05/08 01:23:51;;;;;;;4.13;2.42;;;;;;;;;;5052997;28;20554;-68
2023/05/08 01:26:51;;;;;;;5.07;2.95;;;;;;;;;;4972918;28;20039;-68
2023/05/08 01:29:37;;;;;;;5.05;2.95;;;;;;;;;;5015772;28;20112;-68
2023/05/08 01:32:23;;;;;;;4.93;3.13;;;;;;;;;;5047885;28;20070;-68
2023/05/08 01:35:19;;;;;;;5.93;2.83;;;;;;;;;;5051702;28;20041;-68
2023/05/08 01:37:45;;;;;;;5.70;2.97;;;;;;;;;;5037163;28;20124;-68
2023/05/08 01:40:53;;;;;;;4.35;2.92;;;;;;;;;;5049894;28;20108;-69
2023/05/08 01:43:27;;;;;;;4.32;2.88;;;;;;;;;;5031505;28;20505;-69
2023/05/08 01:45:56;;;;;;;5.72;3.10;;;;;;;;;;5052009;28;20087;-68
2023/05/08 01:48:27;;;;;;;5.50;3.40;;;;;;;;;;5052292;28;20538;-69
2023/05/08 01:51:02;;;;;;;4.18;2.70;;;;;;;;;;5052211;28;20033;-68
2023/05/08 01:53:32;;;;;;;5.40;2.83;;;;;;;;;;5052086;28;20021;-68
2023/05/08 01:56:09;;;;;;;5.28;2.83;;;;;;;;;;5044526;28;20033;-68
2023/05/08 01:58:37;;;;;;;4.25;3.22;;;;;;;;;;5031880;28;20029;-68
2023/05/08 02:01:03;;;;;;;4.50;3.08;;;;;;;;;;5041723;28;20052;-68
2023/05/08 02:03:30;;;;;;;4.97;2.90;;;;;;;;;;5052245;28;20036;-68
2023/05/08 02:05:58;;;;;;;5.25;3.10;;;;;;;;;;5043331;28;20052;-68
2023/05/08 02:08:25;;;;;;;7.85;3.80;;;;;;;;;;5033010;28;20044;-68
2023/05/08 02:10:54;;;;;;;5.25;3.13;;;;;;;;;;5041046;28;20033;-67
2023/05/08 02:13:22;;;;;;;12.40;3.63;;;;;;;;;;5043408;28;20454;-67
2023/05/08 02:15:50;;;;;;;7.18;3.17;;;;;;;;;;5051764;28;20538;-67
2023/05/08 02:18:20;;;;;;;5.72;3.60;;;;;;;;;;5051203;28;20493;-68
2023/05/08 02:20:49;;;;;;;6.55;3.50;;;;;;;;;;5045915;28;20041;-68
2023/05/08 02:23:17;;;;;;;6.38;3.28;;;;;;;;;;5033279;28;20025;-68
2023/05/08 02:25:45;;;;;;;5.88;3.15;;;;;;;;;;5039526;28;20044;-67
2023/05/08 02:28:11;;;;;;;11.25;4.68;;;;;;;;;;5048549;28;20055;-67
2023/05/08 02:30:39;;;;;;;7.00;3.50;;;;;;;;;;5066563;28;20036;-67
2023/05/08 02:33:08;;;;;;;12.80;4.65;;;;;;;;;;5051310;28;20079;-68
2023/05/08 02:35:36;;;;;;;11.55;4.57;;;;;;;;;;5051337;28;20036;-67
2023/05/08 02:38:09;;;;;;;8.80;4.20;;;;;;;;;;5051994;28;20111;-67
2023/05/08 02:40:38;;;;;;;9.73;4.60;;;;;;;;;;5051179;28;20082;-67
2023/05/08 02:43:04;;;;;;;10.70;4.70;;;;;;;;;;5067833;28;20029;-68
2023/05/08 02:45:46;;;;;;;7.05;3.95;;;;;;;;;;5042528;28;20041;-68
2023/05/08 02:48:19;;;;;;;5.65;4.03;;;;;;;;;;5033319;28;20128;-68
2023/05/08 02:51:03;;;;;;;11.38;4.53;;;;;;;;;;5031457;28;20029;-67
2023/05/08 02:53:55;;;;;;;6.38;3.67;;;;;;;;;;5014843;28;20037;-68
2023/05/08 02:56:33;;;;;;;10.23;4.47;;;;;;;;;;5037478;28;20044;-68
2023/05/08 02:59:10;;;;;;;11.32;4.55;;;;;;;;;;5050799;28;20135;-67
2023/05/08 03:01:57;;;;;;;10.95;4.72;;;;;;;;;;5052047;28;20040;-68
2023/05/08 03:04:27;;;;;;;10.00;4.35;;;;;;;;;;5050672;28;20106;-68
2023/05/08 03:06:56;;;;;;;8.00;4.32;;;;;;;;;;5050329;28;20124;-67
2023/05/08 03:09:25;;;;;;;5.57;4.10;;;;;;;;;;5050476;28;20037;-67
2023/05/08 03:11:58;;;;;;;6.18;4.03;;;;;;;;;;5067132;28;20036;-67
2023/05/08 03:14:25;;;;;;;;;;;;;;;;;;5052414;28;20033;-68
2023/05/08 03:16:54;;;;;;;13.23;5.25;;;;;;;;;;5051570;28;19908;-68
2023/05/08 03:19:26;;;;;;;8.93;4.95;;;;;;;;;;5050534;28;20060;-68
2023/05/08 03:21:53;;;;;;;11.00;5.07;;;;;;;;;;5052119;28;20033;-68
2023/05/08 03:24:22;;;;;;;13.40;5.22;;;;;;;;;;5051825;28;20086;-68
2023/05/08 03:26:48;;;;;;;8.25;5.38;;;;;;;;;;5050131;28;20087;-68
2023/05/08 03:29:17;;;;;;;22.63;5.75;;;;;;;;;;5051246;28;20029;-68
2023/05/08 03:31:44;;;;;;;17.35;5.72;;;;;;;;;;5050273;28;20561;-68
2023/05/08 03:34:12;;;;;;;12.95;5.88;;;;;;;;;;5051926;28;20537;-68
2023/05/08 03:36:39;;;;;;;20.13;5.38;;;;;;;;;;5067033;28;20120;-68
2023/05/08 03:39:05;;;;;;;14.38;5.07;;;;;;;;;;5051237;28;20052;-68
2023/05/08 03:41:31;;;;;;;7.45;4.50;;;;;;;;;;5049741;28;20065;-68
2023/05/08 03:43:57;;;;;;;13.50;5.65;;;;;;;;;;5049966;28;20029;-67
2023/05/08 03:46:24;;;;;;;28.50;6.57;;;;;;;;;;5045418;28;20121;-68
2023/05/08 03:48:52;;;;;;;15.23;5.70;;;;;;;;;;5049614;28;20024;-68
2023/05/08 03:51:18;;;;;;;18.33;5.90;;;;;;;;;;5049507;28;20029;-68
2023/05/08 03:53:44;;;;;;;10.73;5.25;;;;;;;;;;5049433;28;20063;-68
2023/05/08 03:56:12;;;;;;;22.70;7.80;;;;;;;;;;5050189;28;20075;-68
2023/05/08 03:58:47;;;;;;;19.52;6.28;;;;;;;;;;5049380;28;20074;-67
2023/05/08 04:01:42;;;;;;;15.88;5.57;;;;;;;;;;5049988;28;20033;-68
2023/05/08 04:04:16;;;;;;;16.42;6.13;;;;;;;;;;5049892;28;20040;-69
2023/05/08 04:06:55;;;;;;;23.48;6.25;;;;;;;;;;5049770;28;20040;-69
2023/05/08 04:09:42;;;;;;;13.85;6.45;;;;;;;;;;5050580;28;20040;-68
2023/05/08 04:12:18;;;;;;;14.43;6.20;;;;;;;;;;5050104;28;20041;-69
2023/05/08 04:14:51;;;;;;;10.63;5.63;;;;;;;;;;5049560;28;20350;-69
2023/05/08 04:17:31;;;;;;;12.50;5.53;;;;;;;;;;5049627;28;20398;-69
2023/05/08 04:20:02;;;;;;;18.90;7.93;;;;;;;;;;5049657;28;20032;-70
2023/05/08 04:22:32;;;;;;;16.20;6.20;;;;;;;;;;5043978;28;20652;-70
2023/05/08 04:25:02;;;;;;;17.20;5.72;;;;;;;;;;5028987;28;20033;-70
2023/05/08 04:27:29;;;;;;;18.10;6.90;;;;;;;;;;5045478;28;20029;-70
2023/05/08 04:29:56;;;;;;;14.02;5.85;;;;;;;;;;5049016;28;20032;-70
2023/05/08 04:32:23;;;;;;;12.63;6.47;;;;;;;;;;5049504;28;20562;-70
2023/05/08 04:34:49;;;;;;;16.60;6.32;;;;;;;;;;5049182;28;20486;-70
2023/05/08 04:37:24;;;;;;;14.20;5.20;;;;;;;;;;5048859;28;20028;-71
2023/05/08 04:39:50;;;;;;;16.08;5.32;;;;;;;;;;5048968;28;20033;-70
2023/05/08 04:42:16;;;;;;;15.18;5.38;;;;;;;;;;5068341;28;20017;-71
2023/05/08 04:44:42;;;;;;;11.60;5.20;;;;;;;;;;5032525;28;20040;-70
2023/05/08 04:47:08;;;;;;;8.40;5.32;;;;;;;;;;5045555;28;20049;-70
2023/05/08 04:49:34;;;;;;;17.33;5.90;;;;;;;;;;5048306;28;20132;-70
2023/05/08 04:52:00;;;;;;;13.95;5.57;;;;;;;;;;5042126;28;20507;-70
2023/05/08 04:54:26;;;;;;;8.52;4.90;;;;;;;;;;5027631;28;20203;-70
2023/05/08 04:56:52;;;;;;;13.30;5.45;;;;;;;;;;5029645;28;20100;-71
2023/05/08 04:59:18;;;;;;;15.35;6.05;;;;;;;;;;5045888;28;20525;-71
2023/05/08 05:01:47;;;;;;;9.65;5.35;;;;;;;;;;5050064;28;20025;-71
2023/05/08 05:04:13;;;;;;;9.82;5.68;;;;;;;;;;5051804;28;20112;-70
2023/05/08 05:06:41;;;;;;;9.75;4.97;;;;;;;;;;5052069;28;20513;-71
2023/05/08 05:09:09;;;;;;;10.10;5.50;;;;;;;;;;5051653;28;20033;-71
2023/05/08 05:11:34;;;;;;;10.43;4.75;;;;;;;;;;5051419;28;20033;-71
2023/05/08 05:14:00;;;;;;;10.55;5.82;;;;;;;;;;5053131;28;20343;-70
2023/05/08 05:16:26;;;;;;;13.95;5.90;;;;;;;;;;5051962;28;20021;-70
2023/05/08 05:18:52;;;;;;;10.68;5.50;;;;;;;;;;5052706;28;20543;-71
2023/05/08 05:21:19;;;;;;;9.48;5.13;;;;;;;;;;5051410;28;20025;-71
2023/05/08 05:23:45;;;;;;;10.80;5.68;;;;;;;;;;5047138;28;20063;-72
2023/05/08 05:26:11;;;;;;;10.88;5.47;;;;;;;;;;5033472;28;20495;-71
2023/05/08 05:28:37;;;;;;;14.18;5.95;;;;;;;;;;5031917;28;20187;-71
2023/05/08 05:31:03;;;;;;;16.27;6.05;;;;;;;;;;5032064;28;20162;-71
2023/05/08 05:33:29;;;;;;;10.25;6.65;;;;;;;;;;5031332;28;20044;-70
2023/05/08 05:35:55;;;;;;;9.98;5.93;;;;;;;;;;5047662;28;20022;-70
2023/05/08 05:38:22;;;;;;;10.20;5.75;;;;;;;;;;5031614;28;20063;-69
2023/05/08 05:40:48;;;;;;;12.98;6.05;;;;;;;;;;5031655;28;20025;-69
2023/05/08 05:43:14;;;;;;;12.02;6.47;;;;;;;;;;5032530;28;20036;-69
2023/05/08 05:45:41;;;;;;;10.82;6.43;;;;;;;;;;5032002;28;20025;-70
2023/05/08 05:48:07;;;;;;;9.85;5.70;;;;;;;;;;5031476;28;20574;-70
2023/05/08 05:50:33;;;;;;;6.72;5.15;;;;;;;;;;5031616;28;20553;-70
2023/05/08 05:52:59;;;;;;;8.82;4.88;;;;;;;;;;5031603;28;20491;-70
2023/05/08 05:55:26;;;;;;;10.45;4.72;;;;;;;;;;5031844;28;20025;-71
2023/05/08 05:57:54;;;;;;;10.20;5.22;;;;;;;;;;4998738;28;20124;-70
2023/05/08 06:00:20;;;;;;;10.43;5.90;;;;;;;;;;5048026;28;20033;-71
2023/05/08 06:02:50;;;;;;;37.65;7.72;;;;;;;;;;5051894;28;20398;-70
2023/05/08 06:05:18;;;;;;;46.95;7.75;;;;;;;;;;5051729;28;20028;-70
2023/05/08 06:07:45;;;;;;;10.10;4.90;;;;;;;;;;5051272;28;20036;-70
2023/05/08 06:10:10;;;;;;;8.48;4.25;;;;;;;;;;5052820;28;20147;-71
2023/05/08 06:12:36;;;;;;;9.23;5.25;;;;;;;;;;5042874;28;20481;-70
2023/05/08 06:15:05;;;;;;;9.32;4.57;;;;;;;;;;5047373;28;20022;-71
2023/05/08 06:17:32;;;;;;;10.40;4.85;;;;;;;;;;5043103;28;20078;-71
2023/05/08 06:19:57;;;;;;;10.63;4.22;;;;;;;;;;5068341;28;20103;-70
2023/05/08 06:22:24;;;;;;;10.68;5.10;;;;;;;;;;5051432;28;20037;-70
2023/05/08 06:24:54;;;;;;;5.93;3.92;;;;;;;;;;5053033;28;20020;-70
2023/05/08 06:27:24;;;;;;;8.82;4.10;;;;;;;;;;5052683;28;20045;-70
2023/05/08 06:29:51;;;;;;;7.50;3.95;;;;;;;;;;5051133;28;20044;-70
2023/05/08 06:32:18;;;;;;;6.88;4.18;;;;;;;;;;5052373;28;20039;-70
2023/05/08 06:34:44;;;;;;;7.78;3.88;;;;;;;;;;5052493;28;20108;-70
2023/05/08 06:37:10;;;;;;;9.55;5.10;;;;;;;;;;5052248;28;20462;-70
2023/05/08 06:39:36;;;;;;;7.15;3.53;;;;;;;;;;5052009;28;20036;-70
2023/05/08 06:42:03;;;;;;;5.28;3.38;;;;;;;;;;5052223;28;20047;-70
2023/05/08 06:44:30;;;;;;;5.25;3.47;;;;;;;;;;5050870;28;20072;-70
2023/05/08 06:46:55;;;;;;;6.50;3.63;;;;;;;;;;5051629;28;20060;-70
2023/05/08 06:49:21;;;;;;;6.85;3.15;;;;;;;;;;5051367;28;20099;-71
2023/05/08 06:51:47;;;;;;;6.70;3.20;;;;;;;;;;5050597;28;20036;-72
2023/05/08 06:54:13;;;;;;;8.25;3.50;;;;;;;;;;5052006;28;20406;-72
2023/05/08 06:56:39;;;;;;;6.95;3.35;;;;;;;;;;5052161;28;20252;-71
2023/05/08 06:59:04;;;;;;;5.18;3.00;;;;;;;;;;5052614;28;20033;-73
2023/05/08 07:01:30;;;;;;;4.70;2.78;;;;;;;;;;5052046;28;20021;-71
2023/05/08 07:03:56;;;;;;;4.85;3.20;;;;;;;;;;5051524;28;20033;-71
2023/05/08 07:06:21;;;;;;;5.97;3.15;;;;;;;;;;5046227;28;20097;-71
2023/05/08 07:08:47;;;;;;;9.95;4.13;;;;;;;;;;5051640;28;20041;-73
2023/05/08 07:11:13;;;;;;;6.30;3.30;;;;;;;;;;5066663;28;20044;-73
2023/05/08 07:13:40;;;;;;;6.50;3.22;;;;;;;;;;5051527;28;20045;-72
2023/05/08 07:16:09;;;;;;;5.45;3.60;;;;;;;;;;5051371;28;20067;-72
2023/05/08 07:18:35;;;;;;;8.30;3.63;;;;;;;;;;5051367;28;20040;-72
2023/05/08 07:21:02;;;;;;;8.77;3.60;;;;;;;;;;5052311;28;20033;-70
2023/05/08 07:23:28;;;;;;;9.07;3.70;;;;;;;;;;5051600;28;20047;-72
2023/05/08 07:25:53;;;;;;;7.25;3.50;;;;;;;;;;5051099;28;20028;-71
2023/05/08 07:28:19;;;;;;;6.22;3.08;;;;;;;;;;5051691;28;20079;-72
2023/05/08 07:30:45;;;;;;;8.32;3.30;;;;;;;;;;5050833;28;20502;-71
2023/05/08 07:33:11;;;;;;;8.90;3.40;;;;;;;;;;5050344;28;20029;-70
2023/05/08 07:35:41;;;;;;;5.10;3.42;;;;;;;;;;5050964;28;20020;-72
2023/05/08 07:38:07;;;;;;;7.10;3.22;;;;;;;;;;5051015;28;20024;-72
2023/05/08 07:40:33;;;;;;;5.88;3.30;;;;;;;;;;5051351;28;20025;-71
2023/05/08 07:42:59;;;;;;;6.43;3.50;;;;;;;;;;5050746;28;20036;-70
2023/05/08 07:45:25;;;;;;;5.47;3.40;;;;;;;;;;5050208;28;20017;-71
2023/05/08 07:47:52;;;;;;;12.23;3.45;;;;;;;;;;5050527;28;20159;-72
2023/05/08 07:50:19;;;;;;;6.55;3.22;;;;;;;;;;5050701;28;20029;-72
2023/05/08 07:52:45;;;;;;;9.27;3.13;;;;;;;;;;5050231;28;20045;-70
2023/05/08 07:55:11;;;;;;;4.85;3.10;;;;;;;;;;5050547;28;20553;-72
2023/05/08 07:57:42;;;;;;;11.85;8.23;;;;;;;;;;5050532;28;20394;-71
2023/05/08 08:00:11;;;;;;;5.65;2.97;;;;;;;;;;5050646;28;20040;-70
2023/05/08 08:02:41;;;;;;;8.52;2.95;;;;;;;;;;5050935;28;20048;-70
2023/05/08 08:05:07;;;;;;;6.80;3.20;;;;;;;;;;5050979;28;20060;-70
2023/05/08 08:07:33;;;;;;;6.68;3.13;;;;;;;;;;5050294;28;20022;-71
2023/05/08 08:10:00;;;;;;;6.10;2.97;;;;;;;;;;5060248;28;20091;-70
2023/05/08 08:12:26;;;;;;;7.15;2.60;;;;;;;;;;5048253;28;20017;-71
2023/05/08 08:14:52;;;;;;;6.05;2.67;;;;;;;;;;5050445;28;20493;-70
2023/05/08 08:17:18;;;;;;;6.60;3.17;;;;;;;;;;5050310;28;20025;-70
2023/05/08 08:19:43;;;;;;;5.38;2.70;;;;;;;;;;5050380;28;20371;-70
2023/05/08 08:22:09;;;;;;;7.88;3.05;;;;;;;;;;5050694;28;20517;-70
2023/05/08 08:24:35;;;;;;;4.75;2.70;;;;;;;;;;5050362;28;20154;-70
2023/05/08 08:27:01;;;;;;;5.88;2.90;;;;;;;;;;5050351;28;20017;-70
2023/05/08 08:29:27;;;;;;;5.35;2.80;;;;;;;;;;5049762;28;20044;-70
2023/05/08 08:31:52;;;;;;;6.35;2.88;;;;;;;;;;5049918;28;20529;-71
2023/05/08 08:34:18;;;;;;;5.53;4.15;;;;;;;;;;5050165;28;20552;-70
2023/05/08 08:36:44;;;;;;;6.75;2.90;;;;;;;;;;5051344;28;20466;-69
2023/05/08 08:39:09;;;;;;;5.68;3.10;;;;;;;;;;5054399;28;20505;-72
2023/05/08 08:41:38;;;;;;;4.80;2.90;;;;;;;;;;5053899;28;20032;-71
2023/05/08 08:44:04;;;;;;;3.88;2.40;;;;;;;;;;5053513;28;20033;-70
2023/05/08 08:46:32;;;;;;;5.57;2.63;;;;;;;;;;5044043;28;20025;-70
2023/05/08 08:49:01;;;;;;;10.45;3.90;;;;;;;;;;5052870;28;20107;-70
2023/05/08 08:51:31;;;;;;;6.05;3.38;;;;;;;;;;5054072;28;20052;-70
2023/05/08 08:54:20;;;;;;;4.25;2.50;;;;;;;;;;5053960;28;20024;-70
2023/05/08 08:56:48;;;;;;;10.07;2.85;;;;;;;;;;5054569;28;20120;-70
2023/05/08 08:59:15;;;;;;;4.35;3.03;;;;;;;;;;5052351;28;20553;-70
2023/05/08 09:01:46;;;;;;;8.65;3.83;;;;;;;;;;5054078;28;20112;-70
2023/05/08 09:04:12;;;;;;;6.00;3.33;;;;;;;;;;5054204;28;20040;-70
2023/05/08 09:06:40;;;;;;;8.63;3.47;;;;;;;;;;5052486;28;20150;-70
2023/05/08 09:09:06;;;;;;;6.07;3.15;;;;;;;;;;5053597;28;20036;-70
2023/05/08 09:11:32;;;;;;;7.03;2.60;;;;;;;;;;5053790;28;20367;-70
2023/05/08 09:13:58;;;;;;;5.57;3.17;;;;;;;;;;5053846;28;20037;-70
2023/05/08 09:16:24;;;;;;;6.55;3.45;;;;;;;;;;5053204;28;20052;-70
2023/05/08 09:18:50;;;;;;;5.43;3.33;;;;;;;;;;5052019;28;20347;-70
2023/05/08 09:21:16;;;;;;;5.72;3.40;;;;;;;;;;5052047;28;20021;-70
2023/05/08 09:23:58;;;;;;;7.85;3.17;;;;;;;;;;5053528;28;20535;-70
2023/05/08 09:26:28;;;;;;;7.80;3.28;;;;;;;;;;5051144;28;20029;-70
2023/05/08 09:29:20;;;;;;;4.97;3.10;;;;;;;;;;5052711;28;20047;-71
2023/05/08 09:31:51;;;;;;;5.32;3.65;;;;;;;;;;5053612;28;20068;-71
2023/05/08 09:34:28;;;;;;;5.82;2.60;;;;;;;;;;5053700;28;20037;-71
2023/05/08 09:36:55;;;;;;;7.20;3.30;;;;;;;;;;5053464;28;20068;-69
2023/05/08 09:39:26;;;;;;;7.55;2.75;;;;;;;;;;5053717;28;20024;-71
2023/05/08 09:42:04;;;;;;;3.97;2.90;;;;;;;;;;5053708;28;20041;-71
2023/05/08 09:44:59;;;;;;;8.75;3.00;;;;;;;;;;5053426;28;20098;-71
2023/05/08 09:47:25;;;;;;;6.68;3.10;;;;;;;;;;5044444;28;20045;-70
2023/05/08 09:50:02;;;;;;;5.05;2.72;;;;;;;;;;5052787;28;20501;-70
2023/05/08 09:52:29;;;;;;;4.53;3.13;;;;;;;;;;5053839;28;20032;-70
2023/05/08 09:54:59;;;;;;;4.25;3.00;;;;;;;;;;5053230;28;20032;-70
2023/05/08 09:57:30;;;;;;;4.53;2.60;;;;;;;;;;5053746;28;20032;-70
2023/05/08 10:00:14;;;;;;;3.50;2.67;;;;;;;;;;5053690;28;20061;-69
2023/05/08 10:02:41;;;;;;;9.85;3.20;;;;;;;;;;5053221;28;20087;-71
2023/05/08 10:05:24;;;;;;;6.03;3.30;;;;;;;;;;5053008;28;20114;-70
2023/05/08 10:07:50;;;;;;;6.97;3.10;;;;;;;;;;5046647;28;20111;-71
2023/05/08 10:10:25;;;;;;;5.80;2.80;;;;;;;;;;5043346;28;20053;-72
2023/05/08 10:12:53;;;;;;;3.40;2.50;;;;;;;;;;5043902;28;20121;-69
2023/05/08 10:15:32;;;;;;;6.32;3.08;;;;;;;;;;5051869;28;20433;-69
2023/05/08 10:18:05;;;;;;;4.82;2.83;;;;;;;;;;5052105;28;20029;-71
2023/05/08 10:20:33;;;;;;;9.13;2.92;;;;;;;;;;5050991;28;20040;-71
2023/05/08 10:22:59;;;;;;;5.50;2.90;;;;;;;;;;5051998;28;20092;-71
2023/05/08 10:25:30;;;;;;;5.03;2.90;;;;;;;;;;5050677;28;20045;-71
2023/05/08 10:28:35;;;;;;;6.43;3.05;;;;;;;;;;5050289;28;20498;-71
2023/05/08 10:31:02;;;;;;;4.95;2.90;;;;;;;;;;5051613;28;20528;-71
2023/05/08 10:33:34;;;;;;;4.13;2.70;;;;;;;;;;5051852;28;20021;-73
2023/05/08 10:36:00;;;;;;;6.07;3.00;;;;;;;;;;5051897;28;20029;-71
2023/05/08 10:38:30;;;;;;;6.82;3.20;;;;;;;;;;5051505;28;20383;-72
2023/05/08 10:41:00;;;;;;;6.00;3.08;;;;;;;;;;5051746;28;20048;-72
2023/05/08 10:43:28;;;;;;;5.32;3.33;;;;;;;;;;5052336;28;20052;-72
2023/05/08 10:45:56;;;;;;;5.10;2.70;;;;;;;;;;5051266;28;20466;-71
2023/05/08 10:48:45;;;;;;;6.97;2.88;;;;;;;;;;5050117;28;20047;-71
2023/05/08 10:51:48;;;;;;;6.80;2.83;;;;;;;;;;5052534;28;20109;-72
2023/05/08 10:54:31;;;;;;;5.13;2.85;;;;;;;;;;5050721;28;20025;-72
2023/05/08 10:57:17;;;;;;;7.68;3.00;;;;;;;;;;5050804;28;20139;-72
2023/05/08 10:59:45;;;;;;;4.93;2.90;;;;;;;;;;5051584;28;20060;-72
2023/05/08 11:02:13;;;;;;;5.60;3.08;;;;;;;;;;5051731;28;20581;-71
2023/05/08 11:04:39;;;;;;;7.65;3.35;;;;;;;;;;5051755;28;20067;-72
2023/05/08 11:07:05;;;;;;;5.97;2.80;;;;;;;;;;5051181;28;20523;-71
2023/05/08 11:09:39;;;;;;;4.78;3.10;;;;;;;;;;5051408;28;20033;-71
2023/05/08 11:12:27;;;;;;;4.45;2.72;;;;;;;;;;5051828;28;20123;-71
2023/05/08 11:14:55;;;;;;;6.55;3.25;;;;;;;;;;5051380;28;20037;-71
2023/05/08 11:17:25;;;;;;;3.92;2.70;;;;;;;;;;5051670;28;20025;-71
2023/05/08 11:20:04;;;;;;;6.07;2.63;;;;;;;;;;5051287;28;20479;-71
2023/05/08 11:22:31;;;;;;;7.13;3.15;;;;;;;;;;5051733;28;20044;-72
2023/05/08 11:25:15;;;;;;;5.97;2.95;;;;;;;;;;5051893;28;20071;-72
2023/05/08 11:27:47;;;;;;;5.22;3.40;;;;;;;;;;5049507;28;20423;-72
2023/05/08 11:30:19;;;;;;;7.43;2.70;;;;;;;;;;5051136;28;20033;-70
2023/05/08 11:32:58;;;;;;;8.75;3.20;;;;;;;;;;5050941;28;20047;-71
2023/05/08 11:35:42;;;;;;;6.90;3.53;;;;;;;;;;5049743;28;20503;-72
2023/05/08 11:38:17;;;;;;;4.50;2.95;;;;;;;;;;5050889;28;20108;-71
2023/05/08 11:40:59;;;;;;;6.57;3.05;;;;;;;;;;5051500;28;20037;-71
2023/05/08 11:43:31;;;;;;;5.63;3.08;;;;;;;;;;5051629;28;20094;-71
2023/05/08 11:46:04;;;;;;;5.30;2.78;;;;;;;;;;5031522;28;20037;-72
2023/05/08 11:48:34;;;;;;;10.32;2.83;;;;;;;;;;5031512;28;20037;-71
2023/05/08 11:51:01;;;;;;;5.32;2.80;;;;;;;;;;5031422;28;20035;-71
2023/05/08 11:53:30;;;;;;;7.20;3.50;;;;;;;;;;5038908;28;20036;-72
2023/05/08 11:55:58;;;;;;;6.28;3.17;;;;;;;;;;5031561;28;20100;-71
2023/05/08 11:58:24;;;;;;;7.93;2.92;;;;;;;;;;5031017;28;20022;-72
2023/05/08 12:00:50;;;;;;;7.68;2.90;;;;;;;;;;5034139;28;20047;-70
2023/05/08 12:03:18;;;;;;;4.28;3.05;;;;;;;;;;5050881;28;20016;-71
2023/05/08 12:05:44;;;;;;;6.13;2.72;;;;;;;;;;5051720;28;20032;-72
2023/05/08 12:08:12;;;;;;;5.97;3.38;;;;;;;;;;5051714;28;20029;-71
2023/05/08 12:10:55;;;;;;;4.45;2.75;;;;;;;;;;5051564;28;20029;-71
2023/05/08 12:13:28;;;;;;;5.43;3.10;;;;;;;;;;5051224;28;20367;-71
2023/05/08 12:15:59;;;;;;;3.83;3.00;;;;;;;;;;5050777;28;20044;-72
2023/05/08 12:18:28;;;;;;;5.57;3.08;;;;;;;;;;5047091;28;20044;-72
2023/05/08 12:20:57;;;;;;;5.53;2.92;;;;;;;;;;5047075;28;20067;-72
2023/05/08 12:23:28;;;;;;;5.78;2.80;;;;;;;;;;5042624;28;20082;-71
2023/05/08 12:25:57;;;;;;;5.07;3.13;;;;;;;;;;5042468;28;20028;-71
2023/05/08 12:28:26;;;;;;;4.50;3.05;;;;;;;;;;5049572;28;20021;-72
2023/05/08 12:30:53;;;;;;;4.00;2.85;;;;;;;;;;5048562;28;20116;-71
2023/05/08 12:33:19;;;;;;;4.85;3.25;;;;;;;;;;5044249;28;20071;-71
2023/05/08 12:35:45;;;;;;;6.57;2.80;;;;;;;;;;5043365;28;20037;-72
2023/05/08 12:38:11;;;;;;;6.15;3.28;;;;;;;;;;5042285;28;20039;-71
2023/05/08 12:40:41;;;;;;;7.43;3.05;;;;;;;;;;5044551;28;20033;-71
2023/05/08 12:43:08;;;;;;;5.07;2.70;;;;;;;;;;5044098;28;20036;-71
2023/05/08 12:45:37;;;;;;;3.70;2.70;;;;;;;;;;5045276;28;20510;-71
2023/05/08 12:48:08;;;;;;;5.75;2.70;;;;;;;;;;5041091;28;20037;-71
2023/05/08 12:50:34;;;;;;;6.22;2.90;;;;;;;;;;5048695;28;20068;-72
2023/05/08 12:53:05;;;;;;;4.95;2.33;;;;;;;;;;5041632;28;20012;-72
2023/05/08 12:55:33;;;;;;;4.28;2.63;;;;;;;;;;5041000;28;20037;-72
2023/05/08 12:57:59;;;;;;;4.55;2.40;;;;;;;;;;5050218;28;20024;-72
2023/05/08 13:00:25;;;;;;;4.07;2.75;;;;;;;;;;5046776;28;20021;-71
2023/05/08 13:02:54;;;;;;;6.47;2.83;;;;;;;;;;5044291;28;20111;-72
2023/05/08 13:05:21;;;;;;;4.13;2.63;;;;;;;;;;5041980;28;20112;-72
2023/05/08 13:07:50;;;;;;;4.63;2.97;;;;;;;;;;5044112;28;20025;-71
2023/05/08 13:10:20;;;;;;;4.85;2.95;;;;;;;;;;5039662;28;20030;-70
2023/05/08 13:12:45;;;;;;;6.38;2.60;;;;;;;;;;5044307;28;20021;-71
2023/05/08 13:15:12;;;;;;;6.18;2.80;;;;;;;;;;5044358;28;20491;-72
2023/05/08 13:17:37;;;;;;;7.88;2.38;;;;;;;;;;5043130;28;20083;-72
2023/05/08 13:20:03;;;;;;;7.90;2.70;;;;;;;;;;5042450;28;20021;-72
2023/05/08 13:22:29;;;;;;;4.07;2.72;;;;;;;;;;5044881;28;20071;-72
2023/05/08 13:24:55;;;;;;;5.00;2.72;;;;;;;;;;5047136;28;20123;-71
2023/05/08 13:27:22;;;;;;;4.32;2.80;;;;;;;;;;5050417;28;20104;-72
2023/05/08 13:29:47;;;;;;;6.75;2.60;;;;;;;;;;5045499;28;20049;-72
2023/05/08 13:32:13;;;;;;;4.68;2.60;;;;;;;;;;5047164;28;20044;-71
2023/05/08 13:34:39;;;;;;;5.38;2.90;;;;;;;;;;5045849;28;20479;-71
2023/05/08 13:37:05;;;;;;;3.95;2.45;;;;;;;;;;5044009;28;20017;-72
2023/05/08 13:39:35;;;;;;;5.78;2.80;;;;;;;;;;5047506;28;20095;-73
2023/05/08 13:42:03;;;;;;;4.65;2.50;;;;;;;;;;5050530;28;20111;-72
2023/05/08 13:44:29;;;;;;;5.93;2.80;;;;;;;;;;5053744;28;20075;-71
2023/05/08 13:46:54;;;;;;;3.30;2.47;;;;;;;;;;5052821;28;20051;-72
2023/05/08 13:49:23;;;;;;;5.35;2.40;;;;;;;;;;5051671;28;20112;-72
2023/05/08 13:51:49;;;;;;;6.90;2.95;;;;;;;;;;5050983;28;20040;-71
2023/05/08 13:54:15;;;;;;;6.05;3.08;;;;;;;;;;5042754;28;20096;-71
2023/05/08 13:56:41;;;;;;;4.70;2.60;;;;;;;;;;5047981;28;20140;-70
2023/05/08 13:59:07;;;;;;;5.65;2.40;;;;;;;;;;5049812;28;20058;-71
2023/05/08 14:01:32;;;;;;;9.07;2.60;;;;;;;;;;5049517;28;20136;-70
2023/05/08 14:03:58;;;;;;;5.75;2.78;;;;;;;;;;5049100;28;20021;-71
2023/05/08 14:06:24;;;;;;;4.63;2.50;;;;;;;;;;5043909;28;20025;-70
2023/05/08 14:08:49;;;;;;;7.60;2.60;;;;;;;;;;5043512;28;20029;-70
2023/05/08 14:11:15;;;;;;;5.75;2.70;;;;;;;;;;5050524;28;20036;-72
2023/05/08 14:13:41;;;;;;;4.40;2.60;;;;;;;;;;5048055;28;20028;-72
2023/05/08 14:16:09;;;;;;;6.57;3.10;;;;;;;;;;5052527;28;20028;-73
2023/05/08 14:18:34;;;;;;;6.93;3.22;;;;;;;;;;5051673;28;20081;-70
2023/05/08 14:21:00;;;;;;;8.45;4.00;;;;;;;;;;5052452;28;20072;-71
2023/05/08 14:23:27;;;;;;;10.90;4.55;;;;;;;;;;5068415;28;20028;-70
2023/05/08 14:25:52;;;;;;;4.90;2.97;;;;;;;;;;5049798;28;20025;-70
2023/05/08 14:28:18;;;;;;;5.80;2.45;;;;;;;;;;5044864;28;20494;-73
2023/05/08 14:30:44;;;;;;;4.32;3.00;;;;;;;;;;5046291;28;20056;-70
2023/05/08 14:33:09;;;;;;;6.40;2.50;;;;;;;;;;5043235;28;20489;-72
2023/05/08 14:35:35;;;;;;;4.72;2.50;;;;;;;;;;5045479;28;20045;-71
2023/05/08 14:38:01;;;;;;;8.52;2.42;;;;;;;;;;5069045;28;20510;-71
2023/05/08 14:40:27;;;;;;;4.20;2.83;;;;;;;;;;5032821;28;20116;-72
2023/05/08 14:42:52;;;;;;;6.32;2.50;;;;;;;;;;5043336;28;20518;-72
2023/05/08 14:45:18;;;;;;;3.55;2.80;;;;;;;;;;5045602;28;20422;-70
2023/05/08 14:47:44;;;;;;;4.18;2.55;;;;;;;;;;5044847;28;20035;-70
2023/05/08 14:50:11;;;;;;;7.60;2.70;;;;;;;;;;5049011;28;20074;-70
2023/05/08 14:52:36;;;;;;;3.72;2.83;;;;;;;;;;5051133;28;20499;-70
2023/05/08 14:55:02;;;;;;;3.95;2.33;;;;;;;;;;5044233;28;20036;-71